Time;durP1;ratioP1;P1;durP2;ratioP2;P2;SDS_P1;SDS_P2;PMS_P1;PMS_P2;Temp;Humidity;BMP_temperature;BMP_pressure;BME280_temperature;BME280_humidity;BME280_pressure;Samples;Min_cycle;Max_cycle;Signal;HPM_P1;HPM_P2
2021/06/14 00:01:51;;;;;;;;;8.75;6.00;;;;;-144.77;100.00;61770.03;4981356;28;46833;-86
2021/06/14 00:04:17;;;;;;;;;5.50;5.00;;;;;-144.77;100.00;61770.03;4964062;28;46953;-86
2021/06/14 00:06:42;;;;;;;;;7.25;4.50;;;;;-144.77;100.00;61770.03;4981572;28;46812;-85
2021/06/14 00:09:08;;;;;;;;;4.75;4.25;;;;;-144.77;100.00;61770.03;4981259;28;46835;-86
2021/06/14 00:11:34;;;;;;;;;5.50;4.00;;;;;-144.77;100.00;61770.03;4980965;28;47300;-86
2021/06/14 00:13:59;;;;;;;;;7.25;5.75;;;;;-144.77;100.00;61770.03;4981323;28;47035;-86
2021/06/14 00:16:25;;;;;;;;;9.50;7.00;;;;;-144.77;100.00;61770.03;4969667;28;47256;-87
2021/06/14 00:18:51;;;;;;;;;8.25;6.75;;;;;-144.77;100.00;61770.03;4979513;28;48326;-87
2021/06/14 00:21:17;;;;;;;;;9.00;9.00;;;;;-144.77;100.00;61770.03;4963252;28;47921;-86
2021/06/14 00:23:43;;;;;;;;;11.25;9.50;;;;;-144.77;100.00;61770.03;4980973;28;47115;-87
2021/06/14 00:26:12;;;;;;;;;14.50;9.75;;;;;-144.77;100.00;61770.03;4980425;28;47292;-87
2021/06/14 00:28:41;;;;;;;;;13.75;12.50;;;;;-144.77;100.00;61770.03;4980808;28;46933;-85
2021/06/14 00:31:08;;;;;;;;;17.00;12.75;;;;;-144.77;100.00;61770.03;4981243;28;47352;-86
2021/06/14 00:33:35;;;;;;;;;15.75;12.50;;;;;-144.77;100.00;61770.03;4967773;28;47146;-86
2021/06/14 00:36:00;;;;;;;;;12.75;10.00;;;;;-144.77;100.00;61770.03;4981223;28;46844;-86
2021/06/14 00:38:26;;;;;;;;;10.50;10.50;;;;;-144.77;100.00;61770.03;4980871;28;46993;-86
2021/06/14 00:40:52;;;;;;;;;11.50;9.75;;;;;-144.77;100.00;61770.03;4965045;28;46824;-85
2021/06/14 00:43:18;;;;;;;;;10.00;10.00;;;;;-144.77;100.00;61770.03;4979266;28;47115;-86
2021/06/14 00:45:47;;;;;;;;;9.75;8.50;;;;;-144.77;100.00;61770.03;4967883;28;46803;-87
2021/06/14 00:48:12;;;;;;;;;12.00;10.00;;;;;-144.77;100.00;61770.03;4980088;28;47082;-87
2021/06/14 00:50:43;;;;;;;;;9.50;7.25;;;;;-144.77;100.00;61770.03;4963215;28;47039;-85
2021/06/14 00:53:12;;;;;;;;;8.50;7.00;;;;;-144.77;100.00;61770.03;4979097;28;47033;-86
2021/06/14 00:55:39;;;;;;;;;7.75;6.25;;;;;-144.77;100.00;61770.03;4962052;28;47377;-86
2021/06/14 00:58:04;;;;;;;;;7.25;6.50;;;;;-144.77;100.00;61770.03;4980595;28;46873;-87
2021/06/14 01:00:30;;;;;;;;;5.75;5.75;;;;;-144.77;100.00;61770.03;4980593;28;46932;-87
2021/06/14 01:02:56;;;;;;;;;7.75;5.75;;;;;-144.77;100.00;61770.03;4980843;28;46965;-86
2021/06/14 01:05:23;;;;;;;;;6.50;5.25;;;;;-144.77;100.00;61770.03;4979926;28;47042;-85
2021/06/14 01:07:49;;;;;;;;;8.75;7.00;;;;;-144.77;100.00;61770.03;4978707;28;48542;-86
2021/06/14 01:10:15;;;;;;;;;10.00;7.75;;;;;-144.77;100.00;61770.03;4978782;28;47308;-86
2021/06/14 01:13:12;;;;;;;;;7.25;7.25;;;;;-144.77;100.00;61770.03;4980593;28;46962;-87
2021/06/14 01:15:52;;;;;;;;;8.00;7.50;;;;;-144.77;100.00;61770.03;4969811;28;47107;-86
2021/06/14 01:18:24;;;;;;;;;7.75;6.00;;;;;-144.77;100.00;61770.03;4979594;28;47070;-85
2021/06/14 01:20:56;;;;;;;;;7.50;7.50;;;;;-144.77;100.00;61770.03;4979344;28;47324;-87
2021/06/14 01:23:47;;;;;;;;;7.75;7.75;;;;;-144.77;100.00;61770.03;4978917;28;47251;-86
2021/06/14 01:26:18;;;;;;;;;5.50;5.50;;;;;-144.77;100.00;61770.03;4977992;28;47218;-86
2021/06/14 01:28:44;;;;;;;;;3.75;3.75;;;;;-144.77;100.00;61770.03;4961999;28;48683;-86
2021/06/14 01:31:11;;;;;;;;;5.50;5.50;;;;;-144.77;100.00;61770.03;4979745;28;46872;-87
2021/06/14 01:33:38;;;;;;;;;6.75;6.00;;;;;-144.77;100.00;61770.03;4980245;28;46904;-85
2021/06/14 01:36:15;;;;;;;;;9.00;6.00;;;;;-144.77;100.00;61770.03;4967978;28;47058;-85
2021/06/14 01:38:45;;;;;;;;;7.25;5.00;;;;;-144.77;100.00;61770.03;4980002;28;47944;-85
2021/06/14 01:41:13;;;;;;;;;5.50;4.50;;;;;-144.77;100.00;61770.03;4960921;28;46821;-86
2021/06/14 01:43:41;;;;;;;;;7.75;7.00;;;;;-144.77;100.00;61770.03;4973968;28;46937;-84
2021/06/14 01:46:10;;;;;;;;;7.25;7.00;;;;;-144.77;100.00;61770.03;4980389;28;47094;-85
2021/06/14 01:48:38;;;;;;;;;7.00;5.25;;;;;-144.77;100.00;61770.03;4978316;28;48607;-84
2021/06/14 01:51:07;;;;;;;;;7.00;5.25;;;;;-144.77;100.00;61770.03;4979965;28;47310;-85
2021/06/14 01:53:34;;;;;;;;;7.25;5.75;;;;;-144.77;100.00;61770.03;4979622;28;47101;-85
2021/06/14 01:56:00;;;;;;;;;5.50;5.50;;;;;-144.77;100.00;61770.03;4977976;28;47008;-85
2021/06/14 01:58:26;;;;;;;;;6.00;5.75;;;;;-144.77;100.00;61770.03;4979584;28;47113;-85
2021/06/14 02:00:52;;;;;;;;;7.00;5.25;;;;;-144.77;100.00;61770.03;4979547;28;47270;-84
2021/06/14 02:03:19;;;;;;;;;6.50;6.50;;;;;-144.77;100.00;61770.03;4979524;28;46956;-85
2021/06/14 02:05:46;;;;;;;;;6.50;6.50;;;;;-144.77;100.00;61770.03;4978621;28;47015;-85
2021/06/14 02:08:15;;;;;;;;;7.25;5.25;;;;;-144.77;100.00;61770.03;4979229;28;47130;-85
2021/06/14 02:10:41;;;;;;;;;6.00;6.00;;;;;-144.77;100.00;61770.03;4978550;28;47196;-85
2021/06/14 02:13:07;;;;;;;;;5.50;5.00;;;;;-144.77;100.00;61770.03;4979559;28;47095;-86
2021/06/14 02:15:34;;;;;;;;;6.00;5.75;;;;;-144.77;100.00;61770.03;4973613;28;47279;-86
2021/06/14 02:18:01;;;;;;;;;6.25;4.50;;;;;-144.77;100.00;61770.03;4978858;28;47202;-86
2021/06/14 02:20:27;;;;;;;;;6.75;6.00;;;;;-144.77;100.00;61770.03;4978935;28;47790;-86
2021/06/14 02:22:53;;;;;;;;;5.50;5.00;;;;;-144.77;100.00;61770.03;4977378;28;47040;-86
2021/06/14 02:25:18;;;;;;;;;10.50;6.50;;;;;-144.77;100.00;61770.03;4966440;28;47186;-86
2021/06/14 02:27:44;;;;;;;;;8.50;8.00;;;;;-144.77;100.00;61770.03;4979737;28;47819;-87
2021/06/14 02:30:16;;;;;;;;;8.75;7.00;;;;;-144.77;100.00;61770.03;4978935;28;46977;-86
2021/06/14 02:32:42;;;;;;;;;7.00;6.00;;;;;-144.77;100.00;61770.03;4979393;28;46993;-87
2021/06/14 02:35:11;;;;;;;;;7.00;6.00;;;;;-144.77;100.00;61770.03;4979417;28;47022;-87
2021/06/14 02:37:39;;;;;;;;;6.50;5.75;;;;;-144.77;100.00;61770.03;4977266;28;47957;-88
2021/06/14 02:40:07;;;;;;;;;7.75;7.25;;;;;-144.77;100.00;61770.03;4977920;28;47036;-87
2021/06/14 02:42:34;;;;;;;;;7.00;6.25;;;;;-144.77;100.00;61770.03;4975195;28;47100;-87
2021/06/14 02:45:00;;;;;;;;;7.00;7.00;;;;;-144.77;100.00;61770.03;4979214;28;47071;-89
2021/06/14 02:47:26;;;;;;;;;8.00;6.25;;;;;-144.77;100.00;61770.03;4961499;28;49263;-88
2021/06/14 02:49:56;;;;;;;;;7.00;7.00;;;;;-144.77;100.00;61770.03;4961486;28;46869;-88
2021/06/14 02:52:23;;;;;;;;;10.00;7.50;;;;;-144.77;100.00;61770.03;4978009;28;47023;-88
2021/06/14 02:54:57;;;;;;;;;8.00;7.50;;;;;-144.77;100.00;61770.03;4979550;28;46976;-85
2021/06/14 02:57:25;;;;;;;;;8.25;5.25;;;;;-144.77;100.00;61770.03;4975087;28;46956;-86
2021/06/14 02:59:53;;;;;;;;;9.75;6.50;;;;;-144.77;100.00;61770.03;4969536;28;47235;-87
2021/06/14 03:02:20;;;;;;;;;9.00;7.50;;;;;-144.77;100.00;61770.03;4978145;28;47123;-87
2021/06/14 03:04:45;;;;;;;;;7.50;7.00;;;;;-144.77;100.00;61770.03;4968975;28;47283;-87
2021/06/14 03:07:11;;;;;;;;;7.75;7.00;;;;;-144.77;100.00;61770.03;4959927;28;48450;-87
2021/06/14 03:09:37;;;;;;;;;9.25;7.00;;;;;-144.77;100.00;61770.03;4977504;28;47048;-87
2021/06/14 03:12:03;;;;;;;;;7.00;6.25;;;;;-144.77;100.00;61770.03;4978903;28;47035;-87
2021/06/14 03:14:29;;;;;;;;;7.75;6.75;;;;;-144.77;100.00;61770.03;4961584;28;47039;-86
2021/06/14 03:16:55;;;;;;;;;9.00;6.25;;;;;-144.77;100.00;61770.03;4967429;28;47972;-86
2021/06/14 03:19:23;;;;;;;;;8.75;8.00;;;;;-144.77;100.00;61770.03;4968739;28;47016;-86
2021/06/14 03:21:49;;;;;;;;;8.75;7.25;;;;;-144.77;100.00;61770.03;4982475;28;46929;-86
2021/06/14 03:24:16;;;;;;;;;9.75;7.75;;;;;-144.77;100.00;61770.03;4971692;28;47114;-86
2021/06/14 03:26:43;;;;;;;;;10.00;8.00;;;;;-144.77;100.00;61770.03;4971384;28;47887;-86
2021/06/14 03:29:14;;;;;;;;;9.00;9.00;;;;;-144.77;100.00;61770.03;4981724;28;46862;-86
2021/06/14 03:31:42;;;;;;;;;11.50;7.25;;;;;-144.77;100.00;61770.03;4981831;28;47027;-86
2021/06/14 03:34:11;;;;;;;;;8.75;8.75;;;;;-144.77;100.00;61770.03;4982344;28;47008;-87
2021/06/14 03:36:39;;;;;;;;;8.00;8.00;;;;;-144.77;100.00;61770.03;4980672;28;46912;-87
2021/06/14 03:39:05;;;;;;;;;6.00;6.00;;;;;-144.77;100.00;61770.03;4980118;28;46943;-86
2021/06/14 03:41:30;;;;;;;;;7.25;6.00;;;;;-144.77;100.00;61770.03;4973668;28;47042;-86
2021/06/14 03:43:56;;;;;;;;;10.00;6.00;;;;;-144.77;100.00;61770.03;4982044;28;46995;-87
2021/06/14 03:46:22;;;;;;;;;6.75;6.75;;;;;-144.77;100.00;61770.03;4981676;28;47817;-86
2021/06/14 03:48:47;;;;;;;;;11.00;7.00;;;;;-144.77;100.00;61770.03;4981854;28;47048;-87
2021/06/14 03:51:13;;;;;;;;;6.50;5.75;;;;;-144.77;100.00;61770.03;4982100;28;47090;-86
2021/06/14 03:53:39;;;;;;;;;7.00;6.50;;;;;-144.77;100.00;61770.03;4982182;28;47182;-87
2021/06/14 03:56:07;;;;;;;;;8.25;6.00;;;;;-144.77;100.00;61770.03;4981548;28;47813;-87
2021/06/14 03:58:33;;;;;;;;;6.00;4.75;;;;;-144.77;100.00;61770.03;4980866;28;47305;-87
2021/06/14 04:00:59;;;;;;;;;7.25;6.75;;;;;-144.77;100.00;61770.03;4974501;28;46956;-87
2021/06/14 04:03:29;;;;;;;;;8.00;8.00;;;;;-144.77;100.00;61770.03;4981758;28;47026;-87
2021/06/14 04:05:56;;;;;;;;;6.00;6.00;;;;;-144.77;100.00;61770.03;4963425;28;49255;-87
2021/06/14 04:08:21;;;;;;;;;6.00;6.00;;;;;-144.77;100.00;61770.03;4981342;28;46938;-86
2021/06/14 04:10:47;;;;;;;;;6.25;6.00;;;;;-144.77;100.00;61770.03;4980073;28;46910;-86
2021/06/14 04:13:13;;;;;;;;;5.50;5.50;;;;;-144.77;100.00;61770.03;4980339;28;47101;-86
2021/06/14 04:15:39;;;;;;;;;8.00;5.75;;;;;-144.77;100.00;61770.03;4978952;28;47838;-85
2021/06/14 04:18:05;;;;;;;;;6.25;6.00;;;;;-144.77;100.00;61770.03;4980909;28;47248;-86
2021/06/14 04:20:30;;;;;;;;;9.75;9.00;;;;;-144.77;100.00;61770.03;4978736;28;47074;-86
2021/06/14 04:22:56;;;;;;;;;11.25;7.50;;;;;-144.77;100.00;61770.03;4979396;28;47136;-86
2021/06/14 04:25:22;;;;;;;;;7.00;7.00;;;;;-144.77;100.00;61770.03;4978404;28;47011;-86
2021/06/14 04:27:48;;;;;;;;;9.25;7.00;;;;;-144.77;100.00;61770.03;4979754;28;47018;-86
2021/06/14 04:30:14;;;;;;;;;8.75;6.00;;;;;-144.77;100.00;61770.03;4980932;28;46922;-85
2021/06/14 04:32:40;;;;;;;;;10.25;8.25;;;;;-144.77;100.00;61770.03;4968371;28;46898;-86
2021/06/14 04:35:07;;;;;;;;;9.00;8.00;;;;;-144.77;100.00;61770.03;4981259;28;47072;-86
2021/06/14 04:37:33;;;;;;;;;10.25;7.75;;;;;-144.77;100.00;61770.03;4981088;28;46958;-87
2021/06/14 04:39:59;;;;;;;;;9.25;8.25;;;;;-144.77;100.00;61770.03;4963726;28;46932;-87
2021/06/14 04:42:26;;;;;;;;;9.25;8.25;;;;;-144.77;100.00;61770.03;4969154;28;47371;-87
2021/06/14 04:44:52;;;;;;;;;9.00;9.00;;;;;-144.77;100.00;61770.03;4978891;28;47117;-87
2021/06/14 04:47:18;;;;;;;;;9.00;7.50;;;;;-144.77;100.00;61770.03;4948716;28;47023;-89
2021/06/14 04:49:44;;;;;;;;;10.25;8.25;;;;;-144.77;100.00;61770.03;4959856;28;47053;-86
2021/06/14 04:52:09;;;;;;;;;10.50;8.75;;;;;-144.77;100.00;61770.03;4978700;28;46885;-85
2021/06/14 04:54:35;;;;;;;;;9.50;8.75;;;;;-144.77;100.00;61770.03;4979050;28;47931;-87
2021/06/14 04:57:00;;;;;;;;;10.25;8.25;;;;;-144.77;100.00;61770.03;4977772;28;47292;-88
2021/06/14 04:59:26;;;;;;;;;8.25;7.75;;;;;-144.77;100.00;61770.03;4979274;28;46968;-87
2021/06/14 05:01:51;;;;;;;;;11.50;8.00;;;;;-144.77;100.00;61770.03;4959840;28;47035;-87
2021/06/14 05:04:17;;;;;;;;;8.75;8.00;;;;;-144.77;100.00;61770.03;4975741;28;47481;-88
2021/06/14 05:06:42;;;;;;;;;8.50;8.50;;;;;-144.77;100.00;61770.03;4963117;28;46932;-86
2021/06/14 05:09:08;;;;;;;;;10.00;8.75;;;;;-144.77;100.00;61770.03;4980331;28;46822;-87
2021/06/14 05:11:34;;;;;;;;;10.50;9.50;;;;;-144.77;100.00;61770.03;4979540;28;47189;-87
2021/06/14 05:13:59;;;;;;;;;9.50;8.00;;;;;-144.77;100.00;61770.03;4980446;28;47888;-87
2021/06/14 05:16:25;;;;;;;;;8.00;7.00;;;;;-144.77;100.00;61770.03;4977295;28;46960;-87
2021/06/14 05:18:50;;;;;;;;;11.25;9.75;;;;;-144.77;100.00;61770.03;4980237;28;47079;-87
2021/06/14 05:21:16;;;;;;;;;9.75;8.00;;;;;-144.77;100.00;61770.03;4980676;28;47158;-87
2021/06/14 05:23:42;;;;;;;;;12.00;7.50;;;;;-144.77;100.00;61770.03;4973791;28;48078;-90
2021/06/14 05:26:07;;;;;;;;;6.75;6.50;;;;;-144.77;100.00;61770.03;4973494;28;47199;-89
2021/06/14 05:28:33;;;;;;;;;9.50;7.00;;;;;-144.77;100.00;61770.03;4980184;28;47213;-90
2021/06/14 05:30:59;;;;;;;;;9.50;7.25;;;;;-144.77;100.00;61770.03;4979645;28;47265;-90
2021/06/14 05:33:24;;;;;;;;;7.25;7.25;;;;;-144.77;100.00;61770.03;4962618;28;47970;-91
2021/06/14 05:35:50;;;;;;;;;10.75;8.00;;;;;-144.77;100.00;61770.03;4978920;28;47591;-90
2021/06/14 05:38:15;;;;;;;;;11.75;8.00;;;;;-144.77;100.00;61770.03;4979890;28;46942;-91
2021/06/14 05:40:41;;;;;;;;;9.50;8.75;;;;;-144.77;100.00;61770.03;4959660;28;47280;-91
2021/06/14 05:43:06;;;;;;;;;7.75;6.75;;;;;-144.77;100.00;61770.03;4975340;28;48060;-92
2021/06/14 05:45:32;;;;;;;;;9.50;7.25;;;;;-144.77;100.00;61770.03;4979105;28;46997;-90
2021/06/14 05:47:57;;;;;;;;;7.00;7.00;;;;;-144.77;100.00;61770.03;4979107;28;46964;-91
2021/06/14 05:50:25;;;;;;;;;5.50;5.50;;;;;-144.77;100.00;61770.03;4980535;28;47147;-91
2021/06/14 05:52:51;;;;;;;;;7.25;7.25;;;;;-144.77;100.00;61770.03;4978979;28;47151;-90
2021/06/14 05:55:17;;;;;;;;;7.25;5.75;;;;;-144.77;100.00;61770.03;4979076;28;47011;-90
2021/06/14 05:57:43;;;;;;;;;6.75;6.50;;;;;-144.77;100.00;61770.03;4979925;28;46913;-79
2021/06/14 06:00:10;;;;;;;;;13.50;7.75;;;;;-144.77;100.00;61770.03;4973691;28;47030;-80
2021/06/14 06:02:36;;;;;;;;;10.50;4.50;;;;;-144.77;100.00;61770.03;4979559;28;48072;-80
2021/06/14 06:05:02;;;;;;;;;8.00;5.50;;;;;-144.77;100.00;61770.03;4966843;28;46951;-80
2021/06/14 06:07:27;;;;;;;;;7.50;6.00;;;;;-144.77;100.00;61770.03;4979696;28;46969;-81
2021/06/14 06:09:53;;;;;;;;;9.50;8.00;;;;;-144.77;100.00;61770.03;4979768;28;47182;-80
2021/06/14 06:12:27;;;;;;;;;9.50;8.75;;;;;-144.77;100.00;61770.03;4979553;28;47713;-82
2021/06/14 06:14:53;;;;;;;;;10.25;8.00;;;;;-144.77;100.00;61770.03;4978665;28;46952;-80
2021/06/14 06:17:18;;;;;;;;;10.50;9.50;;;;;-144.77;100.00;61770.03;4952708;28;46930;-80
2021/06/14 06:19:44;;;;;;;;;9.75;7.75;;;;;-144.77;100.00;61770.03;4978943;28;47114;-81
2021/06/14 06:22:10;;;;;;;;;6.75;6.75;;;;;-144.77;100.00;61770.03;4979007;28;47398;-81
2021/06/14 06:24:35;;;;;;;;;11.50;7.50;;;;;-144.77;100.00;61770.03;4967857;28;47158;-80
2021/06/14 06:27:01;;;;;;;;;9.00;7.00;;;;;-144.77;100.00;61770.03;4979466;28;47076;-80
2021/06/14 06:29:27;;;;;;;;;10.50;6.00;;;;;-144.77;100.00;61770.03;4978993;28;46936;-79
2021/06/14 06:31:53;;;;;;;;;9.75;9.00;;;;;-144.77;100.00;61770.03;4979398;28;47865;-80
2021/06/14 06:34:18;;;;;;;;;6.50;6.00;;;;;-144.77;100.00;61770.03;4977787;28;47087;-80
2021/06/14 06:36:43;;;;;;;;;12.25;8.50;;;;;-144.77;100.00;61770.03;4979295;28;46976;-80
2021/06/14 06:39:09;;;;;;;;;10.25;7.00;;;;;-144.77;100.00;61770.03;4979248;28;46846;-80
2021/06/14 06:41:34;;;;;;;;;7.50;6.25;;;;;-144.77;100.00;61770.03;4969542;28;48257;-80
2021/06/14 06:44:00;;;;;;;;;9.25;7.50;;;;;-144.77;100.00;61770.03;4978422;28;46844;-80
2021/06/14 06:46:26;;;;;;;;;6.00;5.00;;;;;-144.77;100.00;61770.03;4977367;28;46758;-80
2021/06/14 06:48:51;;;;;;;;;11.25;8.00;;;;;-144.77;100.00;61770.03;4979417;28;46869;-80
2021/06/14 06:51:17;;;;;;;;;9.00;5.00;;;;;-144.77;100.00;61770.03;4977737;28;48046;-80
2021/06/14 06:53:42;;;;;;;;;9.00;6.25;;;;;-144.77;100.00;61770.03;4968317;28;47015;-79
2021/06/14 06:56:08;;;;;;;;;8.50;6.25;;;;;-144.77;100.00;61770.03;4979030;28;46876;-79
2021/06/14 06:58:33;;;;;;;;;8.00;6.25;;;;;-144.77;100.00;61770.03;4979245;28;46878;-79
2021/06/14 07:00:59;;;;;;;;;10.00;7.00;;;;;-144.77;100.00;61770.03;4972720;28;47862;-78
2021/06/14 07:03:25;;;;;;;;;6.50;6.00;;;;;-144.77;100.00;61770.03;4971576;28;47032;-78
2021/06/14 07:05:50;;;;;;;;;7.50;5.50;;;;;-144.77;100.00;61770.03;4978998;28;47089;-79
2021/06/14 07:08:16;;;;;;;;;8.50;8.00;;;;;-144.77;100.00;61770.03;4979186;28;47004;-79
2021/06/14 07:10:43;;;;;;;;;8.50;6.00;;;;;-144.77;100.00;61770.03;4978667;28;46975;-78
2021/06/14 07:13:09;;;;;;;;;7.25;6.25;;;;;-144.77;100.00;61770.03;4978934;28;46900;-77
2021/06/14 07:15:34;;;;;;;;;10.00;7.75;;;;;-144.77;100.00;61770.03;4972938;28;47083;-78
2021/06/14 07:18:00;;;;;;;;;6.50;6.00;;;;;-144.77;100.00;61770.03;4966574;28;47105;-79
2021/06/14 07:20:28;;;;;;;;;6.75;6.25;;;;;-144.77;100.00;61770.03;4978057;28;48061;-78
2021/06/14 07:22:54;;;;;;;;;8.00;7.00;;;;;-144.77;100.00;61770.03;4973947;28;47409;-79
2021/06/14 07:25:20;;;;;;;;;5.50;5.50;;;;;-144.77;100.00;61770.03;4951736;28;47028;-78
2021/06/14 07:27:46;;;;;;;;;6.75;6.25;;;;;-144.77;100.00;61770.03;4978036;28;47154;-78
2021/06/14 07:30:12;;;;;;;;;6.75;6.50;;;;;-144.77;100.00;61770.03;4978491;28;48070;-78
2021/06/14 07:32:38;;;;;;;;;6.25;6.00;;;;;-144.77;100.00;61770.03;4960803;28;47337;-78
2021/06/14 07:35:05;;;;;;;;;9.00;7.75;;;;;-144.77;100.00;61770.03;4978658;28;46983;-78
2021/06/14 07:37:31;;;;;;;;;7.75;6.75;;;;;-144.77;100.00;61770.03;4978634;28;47194;-78
2021/06/14 07:39:56;;;;;;;;;6.50;5.25;;;;;-144.77;100.00;61770.03;4978803;28;47116;-78
2021/06/14 07:42:22;;;;;;;;;7.50;6.00;;;;;-144.77;100.00;61770.03;4968840;28;46809;-78
2021/06/14 07:44:48;;;;;;;;;4.50;4.50;;;;;-144.77;100.00;61770.03;4978331;28;47008;-78
2021/06/14 07:47:13;;;;;;;;;6.50;5.75;;;;;-144.77;100.00;61770.03;4978790;28;46826;-78
2021/06/14 07:49:39;;;;;;;;;7.00;5.00;;;;;-144.77;100.00;61770.03;4978153;28;47474;-78
2021/06/14 07:52:06;;;;;;;;;7.25;5.50;;;;;-144.77;100.00;61770.03;4978461;28;46896;-78
2021/06/14 07:54:31;;;;;;;;;6.25;6.25;;;;;-144.77;100.00;61770.03;4978015;28;46928;-78
2021/06/14 07:56:57;;;;;;;;;7.00;6.00;;;;;-144.77;100.00;61770.03;4978123;28;46984;-79
2021/06/14 07:59:22;;;;;;;;;6.25;6.25;;;;;-144.77;100.00;61770.03;4978291;28;46965;-79
2021/06/14 08:01:48;;;;;;;;;7.25;6.25;;;;;-144.77;100.00;61770.03;4972849;28;46932;-79
2021/06/14 08:04:13;;;;;;;;;6.75;6.00;;;;;-144.77;100.00;61770.03;4979248;28;46896;-79
2021/06/14 08:06:39;;;;;;;;;7.00;5.50;;;;;-144.77;100.00;61770.03;4980504;28;47301;-78
2021/06/14 08:09:09;;;;;;;;;6.00;6.00;;;;;-144.77;100.00;61770.03;4981170;28;47912;-79
2021/06/14 08:11:35;;;;;;;;;7.00;6.25;;;;;-144.77;100.00;61770.03;4958645;28;47338;-79
2021/06/14 08:14:01;;;;;;;;;6.00;5.25;;;;;-144.77;100.00;61770.03;4976309;28;46975;-79
2021/06/14 08:16:27;;;;;;;;;8.00;7.50;;;;;-144.77;100.00;61770.03;4967796;28;47162;-79
2021/06/14 08:26:31;;;;;;;;;8.50;7.00;;;;;-144.77;100.00;61770.03;4980854;28;46930;-83
2021/06/14 08:28:59;;;;;;;;;6.75;6.75;;;;;-144.77;100.00;61770.03;4980596;28;47023;-83
2021/06/14 08:31:31;;;;;;;;;6.00;5.75;;;;;-144.77;100.00;61770.03;4981257;28;47197;-82
2021/06/14 08:33:57;;;;;;;;;7.00;6.50;;;;;-144.77;100.00;61770.03;4963571;28;47145;-83
2021/06/14 08:36:24;;;;;;;;;5.75;5.75;;;;;-144.77;100.00;61770.03;4981585;28;47128;-86
2021/06/14 08:38:50;;;;;;;;;7.25;7.25;;;;;-144.77;100.00;61770.03;4980999;28;47135;-85
2021/06/14 08:41:20;;;;;;;;;6.75;6.75;;;;;-144.77;100.00;61770.03;4967411;28;47826;-83
2021/06/14 08:43:49;;;;;;;;;8.25;8.25;;;;;-144.77;100.00;61770.03;4980896;28;46924;-83
2021/06/14 08:46:15;;;;;;;;;5.00;5.00;;;;;-144.77;100.00;61770.03;4981357;28;46956;-83
2021/06/14 08:48:42;;;;;;;;;7.00;6.25;;;;;-144.77;100.00;61770.03;4980705;28;47893;-83
2021/06/14 08:51:10;;;;;;;;;6.00;6.00;;;;;-144.77;100.00;61770.03;4967852;28;47145;-82
2021/06/14 08:53:37;;;;;;;;;6.50;6.50;;;;;-144.77;100.00;61770.03;4980965;28;46839;-82
2021/06/14 08:56:04;;;;;;;;;6.00;6.00;;;;;-144.77;100.00;61770.03;4980924;28;47132;-82
2021/06/14 08:58:32;;;;;;;;;5.25;5.00;;;;;-144.77;100.00;61770.03;4980626;28;47047;-82
2021/06/14 09:00:58;;;;;;;;;6.00;6.00;;;;;-144.77;100.00;61770.03;4980507;28;47126;-84
2021/06/14 09:03:27;;;;;;;;;5.00;5.00;;;;;-144.77;100.00;61770.03;4979329;28;47137;-84
2021/06/14 09:05:54;;;;;;;;;8.75;6.50;;;;;-144.77;100.00;61770.03;4980665;28;46980;-82
2021/06/14 09:08:24;;;;;;;;;7.00;7.00;;;;;-144.77;100.00;61770.03;4980489;28;47011;-82
2021/06/14 09:10:50;;;;;;;;;7.75;6.00;;;;;-144.77;100.00;61770.03;4980531;28;47154;-81
2021/06/14 09:13:22;;;;;;;;;8.00;6.25;;;;;-144.77;100.00;61770.03;4980467;28;46885;-81
2021/06/14 09:15:53;;;;;;;;;6.25;5.50;;;;;-144.77;100.00;61770.03;4974010;28;47034;-82
2021/06/14 09:18:27;;;;;;;;;8.75;7.25;;;;;-144.77;100.00;61770.03;4953051;28;49477;-82
2021/06/14 09:21:05;;;;;;;;;7.00;6.00;;;;;-144.77;100.00;61770.03;4980395;28;46871;-82
2021/06/14 09:24:05;;;;;;;;;6.50;6.50;;;;;-144.77;100.00;61770.03;4976568;28;46983;-82
2021/06/14 09:26:36;;;;;;;;;5.25;5.00;;;;;-144.77;100.00;61770.03;4962943;28;46866;-82
2021/06/14 09:29:10;;;;;;;;;8.00;7.00;;;;;-144.77;100.00;61770.03;4980020;28;47037;-82
2021/06/14 09:31:37;;;;;;;;;7.25;5.50;;;;;-144.77;100.00;61770.03;4980161;28;46902;-82
2021/06/14 09:34:03;;;;;;;;;7.50;6.25;;;;;-144.77;100.00;61770.03;4980284;28;47096;-81
2021/06/14 09:36:29;;;;;;;;;5.00;3.00;;;;;-144.77;100.00;61770.03;4973147;28;47007;-81
2021/06/14 09:39:16;;;;;;;;;5.00;4.00;;;;;-144.77;100.00;61770.03;4955511;28;48362;-82
2021/06/14 09:41:53;;;;;;;;;6.75;5.25;;;;;-144.77;100.00;61770.03;4975232;28;47263;-82
2021/06/14 09:44:32;;;;;;;;;7.50;6.75;;;;;-144.77;100.00;61770.03;4962222;28;47085;-81
2021/06/14 09:47:07;;;;;;;;;9.00;6.00;;;;;-144.77;100.00;61770.03;4980633;28;47130;-82
2021/06/14 09:49:34;;;;;;;;;6.75;5.50;;;;;-144.77;100.00;61770.03;4979819;28;47126;-81
2021/06/14 09:51:59;;;;;;;;;7.00;5.75;;;;;-144.77;100.00;61770.03;4980193;28;47233;-81
2021/06/14 09:54:27;;;;;;;;;4.25;4.25;;;;;-144.77;100.00;61770.03;4978915;28;46840;-81
2021/06/14 09:56:57;;;;;;;;;7.00;6.75;;;;;-144.77;100.00;61770.03;4980311;28;47210;-81
2021/06/14 09:59:34;;;;;;;;;5.25;4.25;;;;;-144.77;100.00;61770.03;4980070;28;47859;-80
2021/06/14 10:02:17;;;;;;;;;5.00;5.00;;;;;-144.77;100.00;61770.03;4979928;28;46894;-79
2021/06/14 10:04:46;;;;;;;;;6.00;5.00;;;;;-144.77;100.00;61770.03;4980006;28;46928;-80
2021/06/14 10:07:13;;;;;;;;;6.00;5.00;;;;;-144.77;100.00;61770.03;4979882;28;47067;-80
2021/06/14 10:09:45;;;;;;;;;5.50;5.00;;;;;-144.77;100.00;61770.03;4979807;28;47176;-85
2021/06/14 10:12:21;;;;;;;;;6.00;6.00;;;;;-144.77;100.00;61770.03;4980139;28;47146;-85
2021/06/14 10:14:58;;;;;;;;;9.75;5.50;;;;;-144.77;100.00;61770.03;4979950;28;46892;-85
2021/06/14 10:17:37;;;;;;;;;4.50;4.50;;;;;-144.77;100.00;61770.03;4952365;28;47347;-84
2021/06/14 10:20:22;;;;;;;;;6.00;5.00;;;;;-144.77;100.00;61770.03;4979638;28;47111;-84
2021/06/14 10:22:49;;;;;;;;;4.00;4.00;;;;;-144.77;100.00;61770.03;4978540;28;47026;-82
2021/06/14 10:25:18;;;;;;;;;3.75;3.00;;;;;-144.77;100.00;61770.03;4951446;28;47059;-84
2021/06/14 10:27:44;;;;;;;;;7.00;7.00;;;;;-144.77;100.00;61770.03;4961763;28;46886;-84
2021/06/14 10:30:12;;;;;;;;;7.00;4.00;;;;;-144.77;100.00;61770.03;4979418;28;47028;-83
2021/06/14 10:32:40;;;;;;;;;6.25;5.00;;;;;-144.77;100.00;61770.03;4979305;28;47008;-83
2021/06/14 10:35:08;;;;;;;;;6.50;4.25;;;;;-144.77;100.00;61770.03;4979678;28;46941;-81
2021/06/14 10:37:43;;;;;;;;;4.00;4.00;;;;;-144.77;100.00;61770.03;4979657;28;46845;-82
2021/06/14 10:40:15;;;;;;;;;4.50;3.25;;;;;-144.77;100.00;61770.03;4976450;28;47830;-84
2021/06/14 10:42:44;;;;;;;;;3.00;3.00;;;;;-144.77;100.00;61770.03;4977115;28;47080;-83
2021/06/14 10:45:11;;;;;;;;;4.00;4.00;;;;;-144.77;100.00;61770.03;4979154;28;47084;-86
2021/06/14 10:47:40;;;;;;;;;4.00;2.25;;;;;-144.77;100.00;61770.03;4979380;28;47055;-84
2021/06/14 10:50:11;;;;;;;;;5.25;3.75;;;;;-144.77;100.00;61770.03;4979228;28;48191;-85
2021/06/14 10:52:38;;;;;;;;;3.00;3.00;;;;;-144.77;100.00;61770.03;4976485;28;47004;-85
2021/06/14 10:55:14;;;;;;;;;3.75;3.25;;;;;-144.77;100.00;61770.03;4979222;28;47003;-85
2021/06/14 10:57:43;;;;;;;;;5.25;4.00;;;;;-144.77;100.00;61770.03;4978022;28;46982;-86
2021/06/14 11:00:19;;;;;;;;;4.75;3.75;;;;;-144.77;100.00;61770.03;4960874;28;48561;-85
2021/06/14 11:03:02;;;;;;;;;3.00;2.00;;;;;-144.77;100.00;61770.03;4977725;28;47850;-86
2021/06/14 11:05:51;;;;;;;;;2.00;2.00;;;;;-144.77;100.00;61770.03;4978836;28;46889;-85
2021/06/14 11:08:22;;;;;;;;;3.25;3.00;;;;;-144.77;100.00;61770.03;4978760;28;47250;-85
2021/06/14 11:11:06;;;;;;;;;6.50;4.50;;;;;-144.77;100.00;61770.03;4978232;28;46944;-85
2021/06/14 11:13:32;;;;;;;;;5.50;4.00;;;;;-144.77;100.00;61770.03;4978708;28;47051;-85
2021/06/14 11:16:01;;;;;;;;;4.00;4.00;;;;;-144.77;100.00;61770.03;4979561;28;46959;-85
2021/06/14 11:18:32;;;;;;;;;5.00;3.75;;;;;-144.77;100.00;61770.03;4961238;28;47309;-85